Main page
METAR-TAF:

METAR-TAF

Airports :

Munich, Germany

Munich Airport

latitude: 48-21N, longitude: 011-47E, elevation: 453 m

Current weather observation

The report was made 10 minutes ago, at 11:50 UTC
Wind 3 kt from variable directions
Temperature 6°C
Humidity 49%
Pressure 1023 hPa
Visibility 10 km or more
Few clouds at a height of 3600 ft

METAR: EDDM 251150Z VRB03KT 9999 FEW036 06/M04 Q1023 NOSIG

Time: 13:00 (12:00 UTC)

Forecast

The report was made 1 hour and 0 minutes ago, at 11:00 UTC
Forecast valid from 25 at 12 UTC to 26 at 18 UTC
Wind 5 kt from the East
Visibility 10 km or more
Few clouds at a height of 4000 ft
Becoming
from 25 at 18 UTC to 25 at 20 UTC
Wind 2 kt from variable directions
Becoming
from 26 at 06 UTC to 26 at 08 UTC
Wind 6 kt from the Southwest

TAF: EDDM 251100Z 2512/2618 10005KT 9999 FEW040 BECMG 2518/2520 VRB02KT BECMG 2606/2608 23006KT

Weather observations and forecasts of more than 4000 airports (METAR and TAF reports).

The available stations are represented by yellow and red dots on the map.

Hover mouse over dot to see the name of the station.

Then click to see weather observations and forecasts.

To change the map : click on the green buttons with a black cross to zoom in, on the green button with a dash to zoom out, or on the green arrows for adjacent maps.


METAR-TAF: